sensor_id;sensor_type;location;lat;lon;timestamp;P1;durP1;ratioP1;P2;durP2;ratioP2
57233;SDS011;43090;52.604;13.318;2023-05-21T00:00:10;27.73;;;11.10;;
57233;SDS011;43090;52.604;13.318;2023-05-21T00:02:37;16.65;;;10.77;;
57233;SDS011;43090;52.604;13.318;2023-05-21T00:05:04;21.77;;;12.77;;
57233;SDS011;43090;52.604;13.318;2023-05-21T00:07:31;17.20;;;10.98;;
57233;SDS011;43090;52.604;13.318;2023-05-21T00:09:58;21.65;;;11.90;;
57233;SDS011;43090;52.604;13.318;2023-05-21T00:12:24;14.18;;;10.75;;
57233;SDS011;43090;52.604;13.318;2023-05-21T00:14:51;20.40;;;11.10;;
57233;SDS011;43090;52.604;13.318;2023-05-21T00:17:17;21.00;;;11.20;;
57233;SDS011;43090;52.604;13.318;2023-05-21T00:19:44;17.75;;;11.38;;
57233;SDS011;43090;52.604;13.318;2023-05-21T00:22:10;17.02;;;10.95;;
57233;SDS011;43090;52.604;13.318;2023-05-21T00:24:37;20.63;;;11.93;;
57233;SDS011;43090;52.604;13.318;2023-05-21T00:27:03;21.85;;;12.57;;
57233;SDS011;43090;52.604;13.318;2023-05-21T00:31:56;17.10;;;11.52;;
57233;SDS011;43090;52.604;13.318;2023-05-21T00:34:23;25.30;;;12.48;;
57233;SDS011;43090;52.604;13.318;2023-05-21T00:36:50;16.50;;;11.45;;
57233;SDS011;43090;52.604;13.318;2023-05-21T00:39:18;18.65;;;11.93;;
57233;SDS011;43090;52.604;13.318;2023-05-21T00:41:45;22.08;;;11.50;;
57233;SDS011;43090;52.604;13.318;2023-05-21T00:46:40;23.70;;;12.60;;
57233;SDS011;43090;52.604;13.318;2023-05-21T00:49:06;20.55;;;11.60;;
57233;SDS011;43090;52.604;13.318;2023-05-21T00:51:33;20.63;;;12.48;;
57233;SDS011;43090;52.604;13.318;2023-05-21T00:53:59;17.80;;;12.23;;
57233;SDS011;43090;52.604;13.318;2023-05-21T00:56:28;16.58;;;11.88;;
57233;SDS011;43090;52.604;13.318;2023-05-21T00:58:56;15.57;;;11.48;;
57233;SDS011;43090;52.604;13.318;2023-05-21T01:01:23;23.60;;;13.25;;
57233;SDS011;43090;52.604;13.318;2023-05-21T01:03:53;20.30;;;13.07;;
57233;SDS011;43090;52.604;13.318;2023-05-21T01:06:23;20.30;;;12.85;;
57233;SDS011;43090;52.604;13.318;2023-05-21T01:08:49;17.45;;;12.88;;
57233;SDS011;43090;52.604;13.318;2023-05-21T01:11:16;19.15;;;12.73;;
57233;SDS011;43090;52.604;13.318;2023-05-21T01:13:43;22.83;;;13.02;;
57233;SDS011;43090;52.604;13.318;2023-05-21T01:16:11;26.02;;;13.10;;
57233;SDS011;43090;52.604;13.318;2023-05-21T01:18:38;16.58;;;10.98;;
57233;SDS011;43090;52.604;13.318;2023-05-21T01:21:08;18.98;;;12.30;;
57233;SDS011;43090;52.604;13.318;2023-05-21T01:23:35;18.70;;;10.98;;
57233;SDS011;43090;52.604;13.318;2023-05-21T01:28:28;19.25;;;11.75;;
57233;SDS011;43090;52.604;13.318;2023-05-21T01:30:55;18.63;;;12.00;;
57233;SDS011;43090;52.604;13.318;2023-05-21T01:33:30;17.55;;;11.70;;
57233;SDS011;43090;52.604;13.318;2023-05-21T01:51:09;22.45;;;13.32;;
57233;SDS011;43090;52.604;13.318;2023-05-21T01:53:36;20.33;;;13.50;;
57233;SDS011;43090;52.604;13.318;2023-05-21T01:56:06;19.90;;;12.88;;
57233;SDS011;43090;52.604;13.318;2023-05-21T01:58:32;19.92;;;13.40;;
57233;SDS011;43090;52.604;13.318;2023-05-21T02:00:59;23.55;;;13.35;;
57233;SDS011;43090;52.604;13.318;2023-05-21T02:03:26;19.13;;;13.52;;
57233;SDS011;43090;52.604;13.318;2023-05-21T02:05:53;19.42;;;12.68;;
57233;SDS011;43090;52.604;13.318;2023-05-21T02:08:20;18.00;;;12.25;;
57233;SDS011;43090;52.604;13.318;2023-05-21T02:10:48;20.17;;;13.00;;
57233;SDS011;43090;52.604;13.318;2023-05-21T02:13:15;26.50;;;14.10;;
57233;SDS011;43090;52.604;13.318;2023-05-21T02:15:45;18.48;;;12.45;;
57233;SDS011;43090;52.604;13.318;2023-05-21T02:20:42;20.48;;;13.60;;
57233;SDS011;43090;52.604;13.318;2023-05-21T02:25:35;22.95;;;12.68;;
57233;SDS011;43090;52.604;13.318;2023-05-21T02:28:02;20.95;;;12.10;;
57233;SDS011;43090;52.604;13.318;2023-05-21T02:30:29;21.13;;;13.45;;
57233;SDS011;43090;52.604;13.318;2023-05-21T02:32:55;19.15;;;12.55;;
57233;SDS011;43090;52.604;13.318;2023-05-21T02:35:24;18.52;;;12.52;;
57233;SDS011;43090;52.604;13.318;2023-05-21T02:37:50;21.25;;;13.18;;
57233;SDS011;43090;52.604;13.318;2023-05-21T02:40:17;19.60;;;11.65;;
57233;SDS011;43090;52.604;13.318;2023-05-21T02:42:43;19.65;;;13.27;;
57233;SDS011;43090;52.604;13.318;2023-05-21T02:45:10;17.95;;;12.32;;
57233;SDS011;43090;52.604;13.318;2023-05-21T02:47:37;19.25;;;13.27;;
57233;SDS011;43090;52.604;13.318;2023-05-21T02:52:34;21.67;;;13.82;;
57233;SDS011;43090;52.604;13.318;2023-05-21T02:55:00;20.73;;;13.80;;
57233;SDS011;43090;52.604;13.318;2023-05-21T02:57:29;23.05;;;14.07;;
57233;SDS011;43090;52.604;13.318;2023-05-21T02:59:56;20.95;;;12.98;;
57233;SDS011;43090;52.604;13.318;2023-05-21T03:02:22;19.50;;;12.70;;
57233;SDS011;43090;52.604;13.318;2023-05-21T03:07:16;22.65;;;13.95;;
57233;SDS011;43090;52.604;13.318;2023-05-21T03:09:45;17.88;;;12.48;;
57233;SDS011;43090;52.604;13.318;2023-05-21T03:12:12;21.90;;;14.10;;
57233;SDS011;43090;52.604;13.318;2023-05-21T03:17:05;19.77;;;12.70;;
57233;SDS011;43090;52.604;13.318;2023-05-21T03:19:33;22.40;;;13.40;;
57233;SDS011;43090;52.604;13.318;2023-05-21T03:22:01;21.55;;;12.60;;
57233;SDS011;43090;52.604;13.318;2023-05-21T03:24:29;17.95;;;13.23;;
57233;SDS011;43090;52.604;13.318;2023-05-21T03:29:22;28.23;;;15.23;;
57233;SDS011;43090;52.604;13.318;2023-05-21T03:31:50;20.50;;;13.80;;
57233;SDS011;43090;52.604;13.318;2023-05-21T03:34:19;19.83;;;13.82;;
57233;SDS011;43090;52.604;13.318;2023-05-21T03:39:12;22.83;;;13.82;;
57233;SDS011;43090;52.604;13.318;2023-05-21T03:41:39;21.92;;;15.05;;
57233;SDS011;43090;52.604;13.318;2023-05-21T03:44:06;20.88;;;13.43;;
57233;SDS011;43090;52.604;13.318;2023-05-21T03:48:59;20.30;;;14.30;;
57233;SDS011;43090;52.604;13.318;2023-05-21T03:51:26;27.52;;;14.23;;
57233;SDS011;43090;52.604;13.318;2023-05-21T03:53:52;20.88;;;14.55;;
57233;SDS011;43090;52.604;13.318;2023-05-21T03:56:19;24.95;;;14.57;;
57233;SDS011;43090;52.604;13.318;2023-05-21T03:58:46;20.42;;;14.38;;
57233;SDS011;43090;52.604;13.318;2023-05-21T04:01:13;24.90;;;14.50;;
57233;SDS011;43090;52.604;13.318;2023-05-21T04:03:39;23.20;;;14.95;;
57233;SDS011;43090;52.604;13.318;2023-05-21T04:08:35;24.50;;;15.23;;
57233;SDS011;43090;52.604;13.318;2023-05-21T04:11:03;20.77;;;14.02;;
57233;SDS011;43090;52.604;13.318;2023-05-21T04:13:29;20.00;;;14.23;;
57233;SDS011;43090;52.604;13.318;2023-05-21T04:15:56;21.23;;;14.00;;
57233;SDS011;43090;52.604;13.318;2023-05-21T04:18:22;23.05;;;15.48;;
57233;SDS011;43090;52.604;13.318;2023-05-21T04:20:51;22.17;;;14.57;;
57233;SDS011;43090;52.604;13.318;2023-05-21T04:23:18;21.67;;;15.05;;
57233;SDS011;43090;52.604;13.318;2023-05-21T04:25:45;25.27;;;16.55;;
57233;SDS011;43090;52.604;13.318;2023-05-21T04:28:16;27.80;;;16.10;;
57233;SDS011;43090;52.604;13.318;2023-05-21T04:30:46;23.60;;;15.77;;
57233;SDS011;43090;52.604;13.318;2023-05-21T04:33:13;22.00;;;14.25;;
57233;SDS011;43090;52.604;13.318;2023-05-21T04:35:45;25.38;;;15.25;;
57233;SDS011;43090;52.604;13.318;2023-05-21T04:38:15;25.85;;;15.68;;
57233;SDS011;43090;52.604;13.318;2023-05-21T04:40:46;27.23;;;16.50;;
57233;SDS011;43090;52.604;13.318;2023-05-21T04:43:15;21.25;;;15.18;;
57233;SDS011;43090;52.604;13.318;2023-05-21T04:45:42;23.85;;;16.20;;
57233;SDS011;43090;52.604;13.318;2023-05-21T04:48:08;22.67;;;16.25;;
57233;SDS011;43090;52.604;13.318;2023-05-21T04:50:35;22.17;;;15.32;;
57233;SDS011;43090;52.604;13.318;2023-05-21T04:53:01;26.85;;;16.75;;
57233;SDS011;43090;52.604;13.318;2023-05-21T04:55:28;24.17;;;15.45;;
57233;SDS011;43090;52.604;13.318;2023-05-21T04:57:55;27.98;;;16.80;;
57233;SDS011;43090;52.604;13.318;2023-05-21T05:00:21;28.60;;;18.02;;
57233;SDS011;43090;52.604;13.318;2023-05-21T05:02:50;27.00;;;18.02;;
57233;SDS011;43090;52.604;13.318;2023-05-21T05:05:17;31.30;;;18.00;;
57233;SDS011;43090;52.604;13.318;2023-05-21T05:07:44;27.35;;;18.42;;
57233;SDS011;43090;52.604;13.318;2023-05-21T05:12:37;30.65;;;17.83;;
57233;SDS011;43090;52.604;13.318;2023-05-21T05:15:03;34.78;;;20.38;;
57233;SDS011;43090;52.604;13.318;2023-05-21T05:17:31;29.00;;;18.35;;
57233;SDS011;43090;52.604;13.318;2023-05-21T05:19:57;32.40;;;20.23;;
57233;SDS011;43090;52.604;13.318;2023-05-21T05:22:24;33.22;;;22.48;;
57233;SDS011;43090;52.604;13.318;2023-05-21T05:24:50;38.42;;;20.98;;
57233;SDS011;43090;52.604;13.318;2023-05-21T05:27:16;32.33;;;19.05;;
57233;SDS011;43090;52.604;13.318;2023-05-21T05:29:43;30.92;;;19.88;;
57233;SDS011;43090;52.604;13.318;2023-05-21T05:34:37;25.67;;;18.98;;
57233;SDS011;43090;52.604;13.318;2023-05-21T05:37:04;34.83;;;20.83;;
57233;SDS011;43090;52.604;13.318;2023-05-21T05:39:30;30.17;;;19.63;;
57233;SDS011;43090;52.604;13.318;2023-05-21T05:41:57;29.38;;;19.73;;
57233;SDS011;43090;52.604;13.318;2023-05-21T05:44:23;33.42;;;21.42;;
57233;SDS011;43090;52.604;13.318;2023-05-21T05:46:50;32.08;;;19.38;;
57233;SDS011;43090;52.604;13.318;2023-05-21T05:49:16;33.08;;;20.85;;
57233;SDS011;43090;52.604;13.318;2023-05-21T05:51:43;29.48;;;21.00;;
57233;SDS011;43090;52.604;13.318;2023-05-21T05:54:09;28.35;;;19.35;;
57233;SDS011;43090;52.604;13.318;2023-05-21T05:56:38;31.33;;;20.67;;
57233;SDS011;43090;52.604;13.318;2023-05-21T05:59:04;32.42;;;21.08;;
57233;SDS011;43090;52.604;13.318;2023-05-21T06:01:31;31.23;;;19.40;;
57233;SDS011;43090;52.604;13.318;2023-05-21T06:03:57;31.35;;;21.00;;
57233;SDS011;43090;52.604;13.318;2023-05-21T06:06:24;35.05;;;20.38;;
57233;SDS011;43090;52.604;13.318;2023-05-21T06:08:50;28.95;;;19.70;;
57233;SDS011;43090;52.604;13.318;2023-05-21T06:11:17;24.08;;;19.05;;
57233;SDS011;43090;52.604;13.318;2023-05-21T06:13:44;30.17;;;19.95;;
57233;SDS011;43090;52.604;13.318;2023-05-21T06:16:11;25.30;;;18.63;;
57233;SDS011;43090;52.604;13.318;2023-05-21T06:18:37;24.83;;;18.48;;
57233;SDS011;43090;52.604;13.318;2023-05-21T06:21:04;28.30;;;17.23;;
57233;SDS011;43090;52.604;13.318;2023-05-21T06:25:57;28.38;;;18.30;;
57233;SDS011;43090;52.604;13.318;2023-05-21T06:28:24;24.65;;;17.35;;
57233;SDS011;43090;52.604;13.318;2023-05-21T06:30:50;28.00;;;18.90;;
57233;SDS011;43090;52.604;13.318;2023-05-21T06:33:17;30.90;;;18.38;;
57233;SDS011;43090;52.604;13.318;2023-05-21T06:38:10;28.15;;;18.33;;
57233;SDS011;43090;52.604;13.318;2023-05-21T06:40:37;26.85;;;17.83;;
57233;SDS011;43090;52.604;13.318;2023-05-21T06:43:03;26.77;;;18.15;;
57233;SDS011;43090;52.604;13.318;2023-05-21T06:45:30;25.48;;;17.33;;
57233;SDS011;43090;52.604;13.318;2023-05-21T06:47:57;30.02;;;17.65;;
57233;SDS011;43090;52.604;13.318;2023-05-21T06:50:23;25.10;;;17.75;;
57233;SDS011;43090;52.604;13.318;2023-05-21T06:52:50;24.33;;;16.83;;
57233;SDS011;43090;52.604;13.318;2023-05-21T06:55:16;29.42;;;17.55;;
57233;SDS011;43090;52.604;13.318;2023-05-21T06:57:43;23.60;;;16.15;;
57233;SDS011;43090;52.604;13.318;2023-05-21T07:00:11;28.80;;;17.73;;
57233;SDS011;43090;52.604;13.318;2023-05-21T07:02:38;23.40;;;16.63;;
57233;SDS011;43090;52.604;13.318;2023-05-21T07:07:31;26.38;;;16.50;;
57233;SDS011;43090;52.604;13.318;2023-05-21T07:10:00;26.52;;;17.27;;
57233;SDS011;43090;52.604;13.318;2023-05-21T07:12:26;25.25;;;16.67;;
57233;SDS011;43090;52.604;13.318;2023-05-21T07:14:53;22.42;;;16.00;;
57233;SDS011;43090;52.604;13.318;2023-05-21T07:17:19;25.80;;;16.65;;
57233;SDS011;43090;52.604;13.318;2023-05-21T07:19:46;21.42;;;15.80;;
57233;SDS011;43090;52.604;13.318;2023-05-21T07:22:12;31.35;;;17.10;;
57233;SDS011;43090;52.604;13.318;2023-05-21T07:24:39;24.33;;;14.93;;
57233;SDS011;43090;52.604;13.318;2023-05-21T07:27:09;21.88;;;15.65;;
57233;SDS011;43090;52.604;13.318;2023-05-21T07:29:50;22.90;;;14.95;;
57233;SDS011;43090;52.604;13.318;2023-05-21T07:32:17;22.95;;;14.48;;
57233;SDS011;43090;52.604;13.318;2023-05-21T07:34:46;26.60;;;15.27;;
57233;SDS011;43090;52.604;13.318;2023-05-21T07:39:40;28.38;;;13.80;;
57233;SDS011;43090;52.604;13.318;2023-05-21T07:42:06;21.17;;;13.10;;
57233;SDS011;43090;52.604;13.318;2023-05-21T07:44:32;25.20;;;13.80;;
57233;SDS011;43090;52.604;13.318;2023-05-21T07:46:59;17.25;;;12.20;;
57233;SDS011;43090;52.604;13.318;2023-05-21T07:49:25;23.30;;;14.05;;
57233;SDS011;43090;52.604;13.318;2023-05-21T07:51:52;22.98;;;12.60;;
57233;SDS011;43090;52.604;13.318;2023-05-21T07:54:19;18.15;;;12.00;;
57233;SDS011;43090;52.604;13.318;2023-05-21T07:56:45;20.40;;;13.05;;
57233;SDS011;43090;52.604;13.318;2023-05-21T07:59:15;16.80;;;12.55;;
57233;SDS011;43090;52.604;13.318;2023-05-21T08:01:42;24.08;;;12.07;;
57233;SDS011;43090;52.604;13.318;2023-05-21T08:04:09;16.95;;;11.30;;
57233;SDS011;43090;52.604;13.318;2023-05-21T08:06:36;20.20;;;13.00;;
57233;SDS011;43090;52.604;13.318;2023-05-21T08:09:03;17.63;;;11.63;;
57233;SDS011;43090;52.604;13.318;2023-05-21T08:11:31;23.05;;;11.40;;
57233;SDS011;43090;52.604;13.318;2023-05-21T08:13:58;16.70;;;12.45;;
57233;SDS011;43090;52.604;13.318;2023-05-21T08:18:51;18.25;;;10.70;;
57233;SDS011;43090;52.604;13.318;2023-05-21T08:21:17;18.77;;;10.77;;
57233;SDS011;43090;52.604;13.318;2023-05-21T08:23:45;20.30;;;11.70;;
57233;SDS011;43090;52.604;13.318;2023-05-21T08:26:11;19.27;;;11.27;;
57233;SDS011;43090;52.604;13.318;2023-05-21T08:28:38;19.88;;;12.15;;
57233;SDS011;43090;52.604;13.318;2023-05-21T08:33:31;17.40;;;10.20;;
57233;SDS011;43090;52.604;13.318;2023-05-21T08:36:01;15.93;;;10.52;;
57233;SDS011;43090;52.604;13.318;2023-05-21T08:38:28;22.88;;;11.23;;
57233;SDS011;43090;52.604;13.318;2023-05-21T08:40:55;13.93;;;10.20;;
57233;SDS011;43090;52.604;13.318;2023-05-21T08:43:27;16.17;;;9.23;;
57233;SDS011;43090;52.604;13.318;2023-05-21T08:45:55;19.38;;;9.88;;
57233;SDS011;43090;52.604;13.318;2023-05-21T08:48:24;16.05;;;9.63;;
57233;SDS011;43090;52.604;13.318;2023-05-21T08:53:18;16.30;;;9.48;;
57233;SDS011;43090;52.604;13.318;2023-05-21T08:55:54;15.25;;;9.55;;
57233;SDS011;43090;52.604;13.318;2023-05-21T08:58:22;18.65;;;10.52;;
57233;SDS011;43090;52.604;13.318;2023-05-21T09:00:49;19.48;;;10.35;;
57233;SDS011;43090;52.604;13.318;2023-05-21T09:03:16;19.67;;;10.15;;
57233;SDS011;43090;52.604;13.318;2023-05-21T09:05:43;18.33;;;9.30;;
57233;SDS011;43090;52.604;13.318;2023-05-21T09:08:17;12.38;;;8.60;;
57233;SDS011;43090;52.604;13.318;2023-05-21T09:10:48;14.75;;;9.65;;
57233;SDS011;43090;52.604;13.318;2023-05-21T09:13:16;15.27;;;9.50;;
57233;SDS011;43090;52.604;13.318;2023-05-21T09:15:43;15.90;;;8.63;;
57233;SDS011;43090;52.604;13.318;2023-05-21T09:18:11;17.35;;;9.07;;
57233;SDS011;43090;52.604;13.318;2023-05-21T09:20:38;19.73;;;8.93;;
57233;SDS011;43090;52.604;13.318;2023-05-21T09:23:05;11.25;;;8.00;;
57233;SDS011;43090;52.604;13.318;2023-05-21T09:25:37;14.23;;;8.20;;
57233;SDS011;43090;52.604;13.318;2023-05-21T09:28:10;24.45;;;8.82;;
57233;SDS011;43090;52.604;13.318;2023-05-21T09:30:42;15.52;;;8.60;;
57233;SDS011;43090;52.604;13.318;2023-05-21T09:33:10;15.45;;;8.55;;
57233;SDS011;43090;52.604;13.318;2023-05-21T09:38:09;12.65;;;7.97;;
57233;SDS011;43090;52.604;13.318;2023-05-21T09:43:02;11.13;;;8.30;;
57233;SDS011;43090;52.604;13.318;2023-05-21T09:45:30;11.68;;;8.43;;
57233;SDS011;43090;52.604;13.318;2023-05-21T09:47:56;16.55;;;8.10;;
57233;SDS011;43090;52.604;13.318;2023-05-21T09:50:26;11.48;;;7.50;;
57233;SDS011;43090;52.604;13.318;2023-05-21T09:52:54;14.43;;;8.27;;
57233;SDS011;43090;52.604;13.318;2023-05-21T09:55:21;12.82;;;7.38;;
57233;SDS011;43090;52.604;13.318;2023-05-21T09:57:48;14.63;;;8.18;;
57233;SDS011;43090;52.604;13.318;2023-05-21T10:02:47;15.13;;;8.55;;
57233;SDS011;43090;52.604;13.318;2023-05-21T10:05:15;15.13;;;7.78;;
57233;SDS011;43090;52.604;13.318;2023-05-21T10:07:49;11.18;;;7.05;;
57233;SDS011;43090;52.604;13.318;2023-05-21T10:10:20;13.73;;;7.97;;
57233;SDS011;43090;52.604;13.318;2023-05-21T10:12:53;18.98;;;7.90;;
57233;SDS011;43090;52.604;13.318;2023-05-21T10:15:23;12.10;;;7.30;;
57233;SDS011;43090;52.604;13.318;2023-05-21T10:17:53;11.02;;;7.32;;
57233;SDS011;43090;52.604;13.318;2023-05-21T10:20:20;11.80;;;7.53;;
57233;SDS011;43090;52.604;13.318;2023-05-21T10:22:48;13.35;;;7.60;;
57233;SDS011;43090;52.604;13.318;2023-05-21T10:25:15;10.20;;;7.22;;
57233;SDS011;43090;52.604;13.318;2023-05-21T10:27:43;17.27;;;7.47;;
57233;SDS011;43090;52.604;13.318;2023-05-21T10:30:10;13.68;;;7.28;;
57233;SDS011;43090;52.604;13.318;2023-05-21T10:32:38;17.20;;;7.70;;
57233;SDS011;43090;52.604;13.318;2023-05-21T10:35:06;11.18;;;7.90;;
57233;SDS011;43090;52.604;13.318;2023-05-21T10:37:34;17.65;;;7.50;;
57233;SDS011;43090;52.604;13.318;2023-05-21T10:40:01;16.85;;;7.70;;
57233;SDS011;43090;52.604;13.318;2023-05-21T10:48:04;15.80;;;7.00;;
57233;SDS011;43090;52.604;13.318;2023-05-21T10:53:32;13.32;;;7.50;;
57233;SDS011;43090;52.604;13.318;2023-05-21T10:56:24;13.07;;;7.45;;
57233;SDS011;43090;52.604;13.318;2023-05-21T11:02:13;15.70;;;7.32;;
57233;SDS011;43090;52.604;13.318;2023-05-21T11:04:43;14.75;;;7.68;;
57233;SDS011;43090;52.604;13.318;2023-05-21T11:07:11;13.10;;;6.90;;
57233;SDS011;43090;52.604;13.318;2023-05-21T11:09:38;12.73;;;7.47;;
57233;SDS011;43090;52.604;13.318;2023-05-21T11:12:04;14.38;;;7.25;;
57233;SDS011;43090;52.604;13.318;2023-05-21T11:14:34;10.85;;;6.80;;
57233;SDS011;43090;52.604;13.318;2023-05-21T11:17:11;13.02;;;6.97;;
57233;SDS011;43090;52.604;13.318;2023-05-21T11:22:24;12.98;;;6.93;;
57233;SDS011;43090;52.604;13.318;2023-05-21T11:24:54;11.15;;;6.68;;
57233;SDS011;43090;52.604;13.318;2023-05-21T11:27:40;14.30;;;6.43;;
57233;SDS011;43090;52.604;13.318;2023-05-21T11:38:11;10.75;;;6.68;;
57233;SDS011;43090;52.604;13.318;2023-05-21T11:40:44;12.00;;;6.45;;
57233;SDS011;43090;52.604;13.318;2023-05-21T11:43:17;10.93;;;6.80;;
57233;SDS011;43090;52.604;13.318;2023-05-21T11:45:43;10.35;;;6.78;;
57233;SDS011;43090;52.604;13.318;2023-05-21T11:48:12;12.00;;;6.03;;
57233;SDS011;43090;52.604;13.318;2023-05-21T11:50:39;13.48;;;6.75;;
57233;SDS011;43090;52.604;13.318;2023-05-21T11:53:07;8.95;;;5.85;;
57233;SDS011;43090;52.604;13.318;2023-05-21T11:55:36;12.57;;;5.60;;
57233;SDS011;43090;52.604;13.318;2023-05-21T11:58:09;9.85;;;5.32;;
57233;SDS011;43090;52.604;13.318;2023-05-21T12:00:39;11.98;;;5.63;;
57233;SDS011;43090;52.604;13.318;2023-05-21T12:03:06;10.55;;;5.22;;
57233;SDS011;43090;52.604;13.318;2023-05-21T12:05:45;13.43;;;5.82;;
57233;SDS011;43090;52.604;13.318;2023-05-21T12:08:12;13.98;;;5.95;;
57233;SDS011;43090;52.604;13.318;2023-05-21T12:10:38;9.05;;;5.68;;
57233;SDS011;43090;52.604;13.318;2023-05-21T12:15:31;9.50;;;5.38;;
57233;SDS011;43090;52.604;13.318;2023-05-21T12:20:26;7.47;;;4.93;;
57233;SDS011;43090;52.604;13.318;2023-05-21T12:22:55;6.55;;;4.85;;
57233;SDS011;43090;52.604;13.318;2023-05-21T12:25:22;9.85;;;5.45;;
57233;SDS011;43090;52.604;13.318;2023-05-21T12:30:18;12.20;;;5.38;;
57233;SDS011;43090;52.604;13.318;2023-05-21T12:32:45;8.13;;;4.68;;
57233;SDS011;43090;52.604;13.318;2023-05-21T12:35:21;8.90;;;5.15;;
57233;SDS011;43090;52.604;13.318;2023-05-21T12:37:49;13.60;;;5.70;;
57233;SDS011;43090;52.604;13.318;2023-05-21T12:40:16;12.95;;;5.55;;
57233;SDS011;43090;52.604;13.318;2023-05-21T12:42:43;11.48;;;6.05;;
57233;SDS011;43090;52.604;13.318;2023-05-21T12:45:09;9.82;;;5.47;;
57233;SDS011;43090;52.604;13.318;2023-05-21T12:47:36;8.63;;;5.03;;
57233;SDS011;43090;52.604;13.318;2023-05-21T12:50:04;10.63;;;5.72;;
57233;SDS011;43090;52.604;13.318;2023-05-21T12:52:34;12.30;;;4.97;;
57233;SDS011;43090;52.604;13.318;2023-05-21T12:55:01;8.55;;;5.32;;
57233;SDS011;43090;52.604;13.318;2023-05-21T13:00:01;9.40;;;5.93;;
57233;SDS011;43090;52.604;13.318;2023-05-21T13:02:30;15.02;;;5.47;;
57233;SDS011;43090;52.604;13.318;2023-05-21T13:04:58;9.15;;;5.57;;
57233;SDS011;43090;52.604;13.318;2023-05-21T13:07:26;12.70;;;5.72;;
57233;SDS011;43090;52.604;13.318;2023-05-21T13:09:54;14.18;;;5.57;;
57233;SDS011;43090;52.604;13.318;2023-05-21T13:12:21;11.27;;;5.35;;
57233;SDS011;43090;52.604;13.318;2023-05-21T13:14:50;10.05;;;4.93;;
57233;SDS011;43090;52.604;13.318;2023-05-21T13:17:21;13.27;;;5.93;;
57233;SDS011;43090;52.604;13.318;2023-05-21T13:20:08;7.50;;;5.03;;
57233;SDS011;43090;52.604;13.318;2023-05-21T13:22:38;11.07;;;5.35;;
57233;SDS011;43090;52.604;13.318;2023-05-21T13:25:22;7.07;;;4.75;;
57233;SDS011;43090;52.604;13.318;2023-05-21T13:27:52;9.38;;;5.10;;
57233;SDS011;43090;52.604;13.318;2023-05-21T13:30:20;8.57;;;5.35;;
57233;SDS011;43090;52.604;13.318;2023-05-21T13:32:47;9.05;;;5.55;;
57233;SDS011;43090;52.604;13.318;2023-05-21T13:35:14;15.77;;;4.65;;
57233;SDS011;43090;52.604;13.318;2023-05-21T13:37:42;10.18;;;5.10;;
57233;SDS011;43090;52.604;13.318;2023-05-21T13:40:09;9.82;;;4.55;;
57233;SDS011;43090;52.604;13.318;2023-05-21T13:42:40;9.85;;;5.00;;
57233;SDS011;43090;52.604;13.318;2023-05-21T13:45:08;6.55;;;4.68;;
57233;SDS011;43090;52.604;13.318;2023-05-21T13:47:37;15.00;;;5.03;;
57233;SDS011;43090;52.604;13.318;2023-05-21T13:50:06;7.30;;;4.80;;
57233;SDS011;43090;52.604;13.318;2023-05-21T13:52:33;7.90;;;5.25;;
57233;SDS011;43090;52.604;13.318;2023-05-21T13:55:00;10.45;;;5.22;;
57233;SDS011;43090;52.604;13.318;2023-05-21T13:59:56;14.05;;;4.97;;
57233;SDS011;43090;52.604;13.318;2023-05-21T14:02:23;8.90;;;5.20;;
57233;SDS011;43090;52.604;13.318;2023-05-21T14:04:49;11.57;;;5.15;;
57233;SDS011;43090;52.604;13.318;2023-05-21T14:07:16;13.45;;;5.78;;
57233;SDS011;43090;52.604;13.318;2023-05-21T14:12:09;13.32;;;5.50;;
57233;SDS011;43090;52.604;13.318;2023-05-21T14:14:35;11.93;;;5.63;;
57233;SDS011;43090;52.604;13.318;2023-05-21T14:17:03;6.95;;;4.55;;
57233;SDS011;43090;52.604;13.318;2023-05-21T14:19:30;12.27;;;5.57;;
57233;SDS011;43090;52.604;13.318;2023-05-21T14:21:56;9.00;;;5.20;;
57233;SDS011;43090;52.604;13.318;2023-05-21T14:24:24;6.75;;;4.82;;
57233;SDS011;43090;52.604;13.318;2023-05-21T14:29:17;12.15;;;5.63;;
57233;SDS011;43090;52.604;13.318;2023-05-21T14:34:11;10.00;;;4.82;;
57233;SDS011;43090;52.604;13.318;2023-05-21T14:39:04;11.88;;;4.55;;
57233;SDS011;43090;52.604;13.318;2023-05-21T14:41:32;8.13;;;5.07;;
57233;SDS011;43090;52.604;13.318;2023-05-21T14:46:25;13.27;;;4.80;;
57233;SDS011;43090;52.604;13.318;2023-05-21T14:48:52;12.38;;;4.65;;
57233;SDS011;43090;52.604;13.318;2023-05-21T14:51:20;9.13;;;5.03;;
57233;SDS011;43090;52.604;13.318;2023-05-21T14:53:47;8.10;;;5.05;;
57233;SDS011;43090;52.604;13.318;2023-05-21T14:58:40;14.85;;;5.45;;
57233;SDS011;43090;52.604;13.318;2023-05-21T15:01:07;8.68;;;4.88;;
57233;SDS011;43090;52.604;13.318;2023-05-21T15:03:36;12.30;;;5.00;;
57233;SDS011;43090;52.604;13.318;2023-05-21T15:06:12;11.68;;;4.72;;
57233;SDS011;43090;52.604;13.318;2023-05-21T15:08:38;9.70;;;5.57;;
57233;SDS011;43090;52.604;13.318;2023-05-21T15:13:32;7.18;;;4.47;;
57233;SDS011;43090;52.604;13.318;2023-05-21T15:18:26;7.13;;;4.17;;
57233;SDS011;43090;52.604;13.318;2023-05-21T15:20:54;15.60;;;4.80;;
57233;SDS011;43090;52.604;13.318;2023-05-21T15:23:21;10.85;;;4.45;;
57233;SDS011;43090;52.604;13.318;2023-05-21T15:28:13;6.63;;;4.78;;
57233;SDS011;43090;52.604;13.318;2023-05-21T15:30:40;10.13;;;4.88;;
57233;SDS011;43090;52.604;13.318;2023-05-21T15:35:33;9.63;;;4.38;;
57233;SDS011;43090;52.604;13.318;2023-05-21T15:38:02;9.00;;;4.63;;
57233;SDS011;43090;52.604;13.318;2023-05-21T15:40:28;7.10;;;4.72;;
57233;SDS011;43090;52.604;13.318;2023-05-21T15:42:55;8.15;;;4.40;;
57233;SDS011;43090;52.604;13.318;2023-05-21T15:45:22;7.45;;;4.60;;
57233;SDS011;43090;52.604;13.318;2023-05-21T15:47:52;7.93;;;4.05;;
57233;SDS011;43090;52.604;13.318;2023-05-21T15:50:25;5.80;;;4.60;;
57233;SDS011;43090;52.604;13.318;2023-05-21T15:55:19;12.95;;;4.53;;
57233;SDS011;43090;52.604;13.318;2023-05-21T15:57:45;13.48;;;4.80;;
57233;SDS011;43090;52.604;13.318;2023-05-21T16:02:38;10.75;;;4.60;;
57233;SDS011;43090;52.604;13.318;2023-05-21T16:05:07;9.43;;;4.28;;
57233;SDS011;43090;52.604;13.318;2023-05-21T16:07:33;6.82;;;4.40;;
57233;SDS011;43090;52.604;13.318;2023-05-21T16:10:03;13.20;;;4.18;;
57233;SDS011;43090;52.604;13.318;2023-05-21T16:12:30;7.13;;;4.45;;
57233;SDS011;43090;52.604;13.318;2023-05-21T16:14:56;9.75;;;4.32;;
57233;SDS011;43090;52.604;13.318;2023-05-21T16:17:23;12.90;;;3.95;;
57233;SDS011;43090;52.604;13.318;2023-05-21T16:19:50;6.22;;;3.88;;
57233;SDS011;43090;52.604;13.318;2023-05-21T16:22:20;11.32;;;3.95;;
57233;SDS011;43090;52.604;13.318;2023-05-21T16:24:48;16.00;;;4.63;;
57233;SDS011;43090;52.604;13.318;2023-05-21T16:29:41;6.20;;;4.25;;
57233;SDS011;43090;52.604;13.318;2023-05-21T16:32:08;5.95;;;3.83;;
57233;SDS011;43090;52.604;13.318;2023-05-21T16:34:38;11.45;;;4.15;;
57233;SDS011;43090;52.604;13.318;2023-05-21T16:37:05;9.50;;;3.97;;
57233;SDS011;43090;52.604;13.318;2023-05-21T16:39:33;8.05;;;4.45;;